Time;durP1;ratioP1;P1;durP2;ratioP2;P2;SDS_P1;SDS_P2;PMS_P1;PMS_P2;Temp;Humidity;BMP_temperature;BMP_pressure;BME280_temperature;BME280_humidity;BME280_pressure;Samples;Min_cycle;Max_cycle;Signal;HPM_P1;HPM_P2
2022/03/14 00:00:26;;;;;;;14.93;9.77;;;8.60;67.60;;;;;;5025729;28;20076;-77
2022/03/14 00:02:52;;;;;;;19.15;10.32;;;8.50;67.70;;;;;;5036234;28;20037;-78
2022/03/14 00:05:18;;;;;;;18.17;9.98;;;8.50;68.00;;;;;;5034268;28;20045;-76
2022/03/14 00:07:45;;;;;;;16.92;10.80;;;8.50;68.00;;;;;;5022793;28;20045;-77
2022/03/14 00:10:15;;;;;;;18.70;10.38;;;9.30;68.70;;;;;;5026605;28;20042;-77
2022/03/14 00:12:42;;;;;;;19.95;10.65;;;8.40;68.60;;;;;;5020744;28;20030;-77
2022/03/14 00:15:13;;;;;;;19.52;10.13;;;8.90;69.10;;;;;;5034297;28;20042;-76
2022/03/14 00:17:42;;;;;;;15.82;10.48;;;8.40;69.00;;;;;;5042007;28;20101;-76
2022/03/14 00:20:11;;;;;;;;;;;8.30;69.10;;;;;;5046805;28;20056;-76
2022/03/14 00:22:37;;;;;;;20.27;11.40;;;8.20;70.50;;;;;;5042810;28;19920;-76
2022/03/14 00:25:05;;;;;;;21.95;12.15;;;8.20;69.70;;;;;;5046759;28;20121;-78
2022/03/14 00:27:30;;;;;;;21.33;12.02;;;8.10;69.90;;;;;;5048810;28;20052;-76
2022/03/14 00:29:56;;;;;;;18.10;10.90;;;8.10;70.50;;;;;;5052017;28;20045;-76
2022/03/14 00:32:22;;;;;;;17.75;10.52;;;8.10;70.60;;;;;;5054702;28;20025;-76
2022/03/14 00:34:47;;;;;;;18.77;11.02;;;8.00;71.00;;;;;;5036110;28;20041;-76
2022/03/14 00:37:13;;;;;;;16.55;9.82;;;8.00;70.80;;;;;;5050832;28;20022;-78
2022/03/14 00:39:39;;;;;;;18.10;10.13;;;8.00;71.30;;;;;;5042739;28;20081;-76
2022/03/14 00:42:04;;;;;;;15.68;10.45;;;8.00;71.20;;;;;;5050027;28;20049;-77
2022/03/14 00:44:30;;;;;;;14.75;9.55;;;8.00;71.50;;;;;;5042410;28;20022;-76
2022/03/14 00:46:56;;;;;;;15.35;9.93;;;8.00;71.70;;;;;;5046994;28;20085;-77
2022/03/14 00:49:22;;;;;;;14.93;9.98;;;8.10;71.80;;;;;;5047595;28;20029;-79
2022/03/14 00:51:47;;;;;;;14.93;10.02;;;8.10;71.90;;;;;;5031420;28;20026;-76
2022/03/14 00:54:13;;;;;;;17.67;10.85;;;8.10;72.80;;;;;;5042301;28;20045;-77
2022/03/14 00:56:39;;;;;;;17.75;11.05;;;8.10;72.60;;;;;;5053097;28;20038;-78
2022/03/14 00:59:04;;;;;;;17.92;10.15;;;8.10;72.70;;;;;;5051193;28;20041;-78
2022/03/14 01:01:30;;;;;;;15.60;9.93;;;8.20;73.20;;;;;;5057580;28;20049;-76
2022/03/14 01:03:56;;;;;;;17.33;10.25;;;8.20;73.40;;;;;;5042074;28;20034;-77
2022/03/14 01:06:22;;;;;;;16.30;9.90;;;8.20;73.60;;;;;;5013400;28;20038;-77
2022/03/14 01:08:47;;;;;;;14.85;10.02;;;8.30;74.50;;;;;;5049902;28;20018;-78
2022/03/14 01:11:13;;;;;;;17.60;11.20;;;8.30;74.40;;;;;;5026788;28;20053;-77
2022/03/14 01:13:40;;;;;;;19.85;10.15;;;8.30;74.70;;;;;;5054006;28;20037;-77
2022/03/14 01:16:06;;;;;;;17.80;10.82;;;8.40;75.40;;;;;;5052611;28;20097;-77
2022/03/14 01:18:32;;;;;;;19.23;10.98;;;8.40;76.00;;;;;;5047585;28;20064;-76
2022/03/14 01:20:58;;;;;;;15.27;10.38;;;8.70;76.80;;;;;;5054072;28;20032;-76
2022/03/14 01:23:23;;;;;;;15.57;10.13;;;8.60;76.60;;;;;;5050773;28;20053;-76
2022/03/14 01:25:51;;;;;;;14.50;9.88;;;9.00;78.10;;;;;;5048735;28;20021;-77
2022/03/14 01:28:17;;;;;;;15.07;9.45;;;8.70;77.70;;;;;;5050873;28;20037;-76
2022/03/14 01:30:44;;;;;;;14.57;9.13;;;8.70;78.40;;;;;;5053545;28;20041;-76
2022/03/14 01:33:13;;;;;;;16.05;10.10;;;8.80;78.40;;;;;;5048490;28;20037;-78
2022/03/14 01:35:40;;;;;;;15.65;9.38;;;8.80;79.20;;;;;;5024017;28;20022;-77
2022/03/14 01:38:06;;;;;;;14.23;9.13;;;8.90;79.20;;;;;;5033514;28;20038;-77
2022/03/14 01:40:32;;;;;;;16.52;9.73;;;8.90;79.40;;;;;;5042239;28;20056;-77
2022/03/14 01:42:58;;;;;;;15.70;10.10;;;9.00;79.90;;;;;;5037464;28;20080;-78
2022/03/14 01:45:24;;;;;;;15.90;9.77;;;8.90;80.20;;;;;;5052072;28;20042;-78
2022/03/14 01:47:51;;;;;;;16.15;8.73;;;9.00;80.70;;;;;;5028323;28;20089;-77
2022/03/14 01:50:17;;;;;;;15.52;9.77;;;9.00;80.70;;;;;;5051308;28;20024;-77
2022/03/14 01:52:44;;;;;;;13.15;8.43;;;9.00;80.90;;;;;;5034500;28;20021;-79
2022/03/14 01:55:11;;;;;;;15.20;9.77;;;9.00;81.10;;;;;;5044801;28;20080;-78
2022/03/14 01:57:38;;;;;;;14.27;9.13;;;9.00;80.90;;;;;;5048056;28;20049;-78
2022/03/14 02:00:07;;;;;;;14.80;9.32;;;9.50;81.80;;;;;;5052994;28;20065;-79
2022/03/14 02:02:32;;;;;;;16.65;9.70;;;9.00;81.50;;;;;;5041497;28;20085;-76
2022/03/14 02:04:58;;;;;;;12.25;8.57;;;9.10;81.60;;;;;;5040221;28;20026;-77
2022/03/14 02:07:25;;;;;;;18.50;9.82;;;9.10;81.70;;;;;;5009585;28;20034;-77
2022/03/14 02:09:50;;;;;;;16.75;9.45;;;9.10;82.30;;;;;;5045440;28;20044;-78
2022/03/14 02:12:16;;;;;;;16.33;9.68;;;9.10;82.30;;;;;;5044718;28;20042;-78
2022/03/14 02:14:42;;;;;;;14.25;9.40;;;9.00;82.40;;;;;;5047577;28;20022;-77
2022/03/14 02:17:12;;;;;;;14.38;9.90;;;9.10;82.90;;;;;;5045748;28;20033;-77
2022/03/14 02:19:39;;;;;;;13.77;9.30;;;9.00;82.80;;;;;;5045173;28;20038;-78
2022/03/14 02:22:09;;;;;;;16.67;9.43;;;9.00;83.30;;;;;;5052671;28;20025;-78
2022/03/14 02:24:35;;;;;;;16.88;9.45;;;9.00;83.60;;;;;;5026874;28;20030;-78
2022/03/14 02:27:03;;;;;;;18.02;9.27;;;9.00;83.70;;;;;;5025243;28;20033;-77
2022/03/14 02:29:28;;;;;;;13.13;8.65;;;9.00;84.00;;;;;;5045805;28;20086;-76
2022/03/14 02:31:55;;;;;;;13.40;8.90;;;9.00;83.90;;;;;;5046852;28;20037;-76
2022/03/14 02:34:21;;;;;;;17.25;9.50;;;9.00;83.90;;;;;;5050773;28;20057;-77
2022/03/14 02:36:46;;;;;;;16.33;9.07;;;9.00;83.90;;;;;;5052042;28;20051;-77
2022/03/14 02:39:12;;;;;;;14.05;9.13;;;8.90;83.90;;;;;;5048486;28;20022;-78
2022/03/14 02:41:38;;;;;;;13.02;9.05;;;9.00;84.10;;;;;;5056355;28;20017;-77
2022/03/14 02:44:08;;;;;;;12.32;8.63;;;8.90;84.30;;;;;;5035303;28;20044;-78
2022/03/14 02:46:48;;;;;;;15.73;8.55;;;8.90;84.80;;;;;;5048416;28;20048;-79
2022/03/14 02:49:13;;;;;;;15.20;8.55;;;8.90;85.30;;;;;;5024318;28;20429;-76
2022/03/14 02:51:40;;;;;;;12.95;8.85;;;9.00;85.20;;;;;;5046477;28;20049;-78
2022/03/14 02:54:10;;;;;;;14.48;8.65;;;9.00;85.60;;;;;;5042376;28;20022;-77
2022/03/14 02:56:40;;;;;;;14.15;9.07;;;9.00;86.00;;;;;;5053141;28;20084;-76
2022/03/14 02:59:07;;;;;;;13.82;8.55;;;9.90;86.70;;;;;;5040505;28;20026;-77
2022/03/14 03:01:34;;;;;;;14.55;8.98;;;9.00;86.90;;;;;;5028169;28;20048;-77
2022/03/14 03:04:00;;;;;;;13.23;9.23;;;9.00;86.80;;;;;;5048175;28;20013;-77
2022/03/14 03:06:26;;;;;;;13.15;8.30;;;9.00;87.00;;;;;;5044661;28;20048;-78
2022/03/14 03:08:53;;;;;;;11.30;7.85;;;9.50;87.70;;;;;;5048334;28;20041;-76
2022/03/14 03:11:20;;;;;;;13.68;8.02;;;9.00;87.40;;;;;;5048695;28;20073;-77
2022/03/14 03:13:47;;;;;;;12.82;8.20;;;9.00;87.50;;;;;;5048487;28;20029;-78
2022/03/14 03:16:15;;;;;;;12.98;7.82;;;9.00;87.80;;;;;;5028199;28;20076;-78
2022/03/14 03:18:41;;;;;;;13.10;8.18;;;9.00;88.00;;;;;;5027667;28;20037;-77
2022/03/14 03:21:07;;;;;;;12.13;8.15;;;9.00;88.20;;;;;;5056833;28;20056;-78
2022/03/14 03:23:34;;;;;;;12.50;8.18;;;9.00;88.10;;;;;;5054787;28;20021;-78
2022/03/14 03:26:00;;;;;;;11.98;8.30;;;9.10;88.80;;;;;;5046350;28;20029;-78
2022/03/14 03:28:26;;;;;;;13.02;7.85;;;9.10;88.50;;;;;;5032732;28;20100;-77
2022/03/14 03:30:52;;;;;;;11.13;7.90;;;9.00;88.70;;;;;;5045297;28;20038;-77
2022/03/14 03:33:18;;;;;;;10.57;7.35;;;9.10;89.10;;;;;;5044626;28;20044;-78
2022/03/14 03:35:43;;;;;;;12.00;7.57;;;9.00;89.30;;;;;;5050468;28;20104;-76
2022/03/14 03:38:09;;;;;;;10.90;7.50;;;9.00;89.70;;;;;;5041868;28;20021;-78
2022/03/14 03:40:34;;;;;;;10.95;7.95;;;9.10;89.60;;;;;;5040107;28;20056;-77
2022/03/14 03:43:00;;;;;;;11.23;7.25;;;9.10;90.00;;;;;;5012969;28;20030;-77
2022/03/14 03:45:26;;;;;;;11.68;7.50;;;9.10;90.00;;;;;;5045223;28;20017;-79
2022/03/14 03:47:53;;;;;;;15.05;8.20;;;9.10;90.10;;;;;;5039946;28;20040;-76
2022/03/14 03:50:20;;;;;;;15.43;9.52;;;9.10;90.30;;;;;;5042406;28;20051;-76
2022/03/14 03:52:45;;;;;;;14.90;10.18;;;9.10;90.10;;;;;;5061504;28;20041;-77
2022/03/14 03:55:11;;;;;;;16.80;10.07;;;9.10;90.30;;;;;;5029222;28;20093;-77
2022/03/14 03:57:37;;;;;;;15.50;9.90;;;9.00;90.20;;;;;;5025916;28;20030;-76
2022/03/14 04:00:04;;;;;;;13.73;9.80;;;9.00;90.20;;;;;;5053104;28;20064;-77
2022/03/14 04:02:36;;;;;;;12.65;8.82;;;8.90;90.20;;;;;;5043685;28;20038;-75
2022/03/14 04:05:02;;;;;;;12.43;9.05;;;8.90;90.30;;;;;;5050785;28;20105;-75
2022/03/14 04:07:27;;;;;;;13.48;8.95;;;8.80;90.50;;;;;;5042585;28;20025;-75
2022/03/14 04:09:56;;;;;;;13.75;9.77;;;8.80;90.50;;;;;;5048675;28;20037;-77
2022/03/14 04:12:26;;;;;;;12.80;8.80;;;8.80;90.50;;;;;;5053579;28;20032;-77
2022/03/14 04:14:52;;;;;;;12.98;9.05;;;8.80;90.70;;;;;;5060953;28;20029;-77
2022/03/14 04:17:19;;;;;;;14.15;8.68;;;8.70;90.80;;;;;;5049733;28;20042;-78
2022/03/14 04:19:45;;;;;;;13.50;8.52;;;9.10;91.00;;;;;;5048813;28;20050;-78
2022/03/14 04:22:13;;;;;;;11.93;8.13;;;8.70;91.20;;;;;;5041599;28;20026;-77
2022/03/14 04:24:38;;;;;;;11.23;8.40;;;8.70;91.20;;;;;;5034202;28;20053;-78
2022/03/14 04:27:04;;;;;;;12.18;8.70;;;8.80;91.60;;;;;;5049984;28;20284;-76
2022/03/14 04:29:30;;;;;;;17.50;9.85;;;8.70;91.80;;;;;;5041376;28;20210;-76
2022/03/14 04:31:56;;;;;;;15.85;9.73;;;8.70;92.10;;;;;;5032227;28;20045;-77
2022/03/14 04:34:21;;;;;;;15.77;9.63;;;8.70;92.10;;;;;;5051648;28;20085;-76
2022/03/14 04:36:50;;;;;;;14.55;8.73;;;8.70;91.80;;;;;;5014192;28;20021;-77
2022/03/14 04:39:20;;;;;;;10.90;7.70;;;8.70;91.90;;;;;;5055777;28;20025;-78
2022/03/14 04:41:46;;;;;;;10.73;7.45;;;8.60;92.10;;;;;;5043445;28;20068;-77
2022/03/14 04:44:12;;;;;;;11.48;7.80;;;8.70;92.40;;;;;;5050856;28;21514;-77
2022/03/14 04:46:37;;;;;;;11.32;7.20;;;8.70;92.70;;;;;;5037375;28;20021;-77
2022/03/14 04:49:04;;;;;;;11.02;7.13;;;8.70;92.80;;;;;;5050760;28;20033;-76
2022/03/14 04:51:33;;;;;;;11.15;7.20;;;8.70;92.90;;;;;;5048694;28;20064;-75
2022/03/14 04:53:59;;;;;;;10.45;6.53;;;8.70;92.90;;;;;;5050290;28;20030;-77
2022/03/14 04:56:25;;;;;;;8.90;6.47;;;8.70;92.90;;;;;;5032322;28;20034;-76
2022/03/14 04:58:51;;;;;;;14.75;6.53;;;8.70;92.80;;;;;;5032046;28;20049;-78
2022/03/14 05:01:23;;;;;;;10.30;6.40;;;8.60;93.10;;;;;;5043507;28;20041;-77
2022/03/14 05:03:52;;;;;;;13.13;7.10;;;8.60;93.10;;;;;;5015905;28;20086;-77
2022/03/14 05:06:18;;;;;;;9.05;6.03;;;8.60;93.20;;;;;;5041559;28;20026;-76
2022/03/14 05:08:44;;;;;;;8.73;5.63;;;8.60;93.30;;;;;;5051772;28;20113;-78
2022/03/14 05:11:11;;;;;;;10.02;6.80;;;8.60;93.40;;;;;;5033028;28;20037;-76
2022/03/14 05:13:37;;;;;;;10.85;7.72;;;8.60;93.70;;;;;;5033563;28;20045;-75
2022/03/14 05:16:03;;;;;;;14.05;7.70;;;8.60;93.60;;;;;;5053349;28;20037;-76
2022/03/14 05:18:28;;;;;;;11.40;7.60;;;8.60;93.60;;;;;;5049889;28;20048;-79
2022/03/14 05:20:54;;;;;;;11.30;7.85;;;8.60;93.80;;;;;;5049498;28;20042;-76
2022/03/14 05:23:20;;;;;;;10.95;8.00;;;8.60;93.90;;;;;;5047033;28;20094;-77
2022/03/14 05:25:46;;;;;;;10.07;6.95;;;8.60;94.10;;;;;;5046083;28;20037;-78
2022/03/14 05:28:12;;;;;;;10.90;7.28;;;8.60;94.00;;;;;;5046671;28;20045;-76
2022/03/14 05:30:38;;;;;;;9.30;6.28;;;8.60;94.10;;;;;;5055149;28;20064;-77
2022/03/14 05:33:03;;;;;;;11.85;6.80;;;8.70;94.30;;;;;;5025427;28;20034;-76
2022/03/14 05:35:29;;;;;;;9.20;6.20;;;8.60;94.40;;;;;;5049944;28;20045;-77
2022/03/14 05:37:55;;;;;;;9.25;6.20;;;8.60;94.40;;;;;;5050462;28;20026;-76
2022/03/14 05:40:21;;;;;;;8.32;5.65;;;8.70;94.60;;;;;;5044497;28;20034;-78
2022/03/14 05:42:49;;;;;;;7.72;5.20;;;8.60;94.80;;;;;;5047351;28;20048;-77
2022/03/14 05:45:16;;;;;;;6.50;4.68;;;8.70;95.10;;;;;;5050302;28;20090;-78
2022/03/14 05:47:42;;;;;;;5.53;4.23;;;8.70;95.30;;;;;;5037534;28;20025;-77
2022/03/14 05:50:08;;;;;;;8.02;4.57;;;8.80;95.30;;;;;;5053487;28;20036;-76
2022/03/14 05:52:34;;;;;;;8.70;4.65;;;8.70;95.50;;;;;;5045942;28;20089;-77
2022/03/14 05:54:59;;;;;;;10.73;4.55;;;8.70;95.80;;;;;;5028349;28;20085;-77
2022/03/14 05:57:25;;;;;;;10.65;5.70;;;8.70;95.60;;;;;;5042742;28;20026;-77
2022/03/14 05:59:51;;;;;;;7.18;4.30;;;8.80;95.70;;;;;;5029417;28;20046;-76
2022/03/14 06:02:24;;;;;;;7.80;4.75;;;8.80;96.00;;;;;;5044009;28;20045;-77
2022/03/14 06:04:51;;;;;;;5.82;4.32;;;8.80;96.60;;;;;;5054981;28;20040;-76
2022/03/14 06:07:19;;;;;;;6.67;4.13;;;8.80;97.10;;;;;;5054106;28;20021;-77
2022/03/14 06:09:46;;;;;;;6.97;4.18;;;8.80;96.80;;;;;;5033395;28;20028;-76
2022/03/14 06:12:21;;;;;;;5.35;3.95;;;8.80;97.30;;;;;;5025319;28;20046;-76
2022/03/14 06:14:47;;;;;;;7.25;4.20;;;8.90;97.50;;;;;;5021819;28;20050;-78
2022/03/14 06:17:13;;;;;;;5.78;3.80;;;8.90;98.00;;;;;;5030497;28;20092;-77
2022/03/14 06:19:38;;;;;;;5.30;3.55;;;8.80;98.20;;;;;;5049526;28;20097;-78
2022/03/14 06:22:04;;;;;;;6.45;4.10;;;8.90;98.40;;;;;;5049470;28;20041;-75
2022/03/14 06:24:29;;;;;;;5.75;3.83;;;8.90;98.40;;;;;;5021719;28;20061;-77
2022/03/14 06:26:55;;;;;;;6.47;4.28;;;8.90;98.60;;;;;;5023828;28;20053;-77
2022/03/14 06:29:21;;;;;;;5.35;3.78;;;8.90;99.20;;;;;;5050159;28;20022;-77
2022/03/14 06:31:47;;;;;;;6.25;4.28;;;8.90;99.30;;;;;;5034332;28;20092;-79
2022/03/14 06:34:12;;;;;;;6.60;4.18;;;8.90;99.30;;;;;;5029347;28;20022;-75
2022/03/14 06:36:38;;;;;;;5.55;4.15;;;8.90;99.70;;;;;;5050522;28;20325;-78
2022/03/14 06:39:04;;;;;;;5.55;3.90;;;8.90;99.90;;;;;;5032891;28;20021;-77
2022/03/14 06:41:31;;;;;;;6.93;4.30;;;8.90;99.80;;;;;;5049474;28;20053;-76
2022/03/14 06:43:57;;;;;;;7.32;4.38;;;8.90;99.90;;;;;;5035288;28;20042;-75
2022/03/14 06:46:23;;;;;;;8.77;4.35;;;8.90;99.90;;;;;;5047238;28;20072;-78
2022/03/14 06:48:49;;;;;;;6.00;4.25;;;8.90;99.90;;;;;;5035374;28;20042;-76
2022/03/14 06:51:14;;;;;;;5.93;4.38;;;8.90;99.90;;;;;;5006607;28;20102;-76
2022/03/14 06:53:40;;;;;;;7.97;4.60;;;8.90;99.90;;;;;;5040521;28;20416;-77
2022/03/14 06:56:06;;;;;;;8.25;4.68;;;9.00;99.90;;;;;;5021651;28;20033;-78
2022/03/14 06:58:34;;;;;;;7.97;4.07;;;9.00;99.90;;;;;;5036608;28;20050;-76
2022/03/14 07:01:00;;;;;;;6.07;4.60;;;9.00;99.90;;;;;;5043919;28;20489;-76
2022/03/14 07:03:27;;;;;;;6.22;4.50;;;9.00;99.90;;;;;;5032058;28;20045;-77
2022/03/14 07:05:53;;;;;;;6.70;5.07;;;9.00;99.90;;;;;;5046175;28;20050;-77
2022/03/14 07:08:18;;;;;;;6.82;4.60;;;9.00;99.90;;;;;;5044928;28;20072;-77
2022/03/14 07:10:44;;;;;;;9.98;5.07;;;9.00;99.90;;;;;;5053090;28;20045;-77
2022/03/14 07:13:10;;;;;;;6.20;4.30;;;9.00;99.90;;;;;;5028153;28;20045;-77
2022/03/14 07:15:36;;;;;;;6.55;4.63;;;9.00;99.90;;;;;;5046190;28;20046;-78
2022/03/14 07:18:02;;;;;;;7.40;4.45;;;9.00;99.90;;;;;;5045198;28;20033;-77
2022/03/14 07:20:28;;;;;;;7.03;4.93;;;9.00;99.90;;;;;;5046553;28;20042;-78
2022/03/14 07:22:59;;;;;;;8.15;5.30;;;9.00;99.90;;;;;;5012604;28;20073;-78
2022/03/14 07:25:32;;;;;;;6.53;4.95;;;9.00;99.90;;;;;;5043109;28;20061;-78
2022/03/14 07:28:03;;;;;;;8.80;5.38;;;9.00;99.90;;;;;;5046306;28;20492;-78
2022/03/14 07:30:29;;;;;;;6.97;4.90;;;9.00;99.90;;;;;;5035732;28;20358;-79
2022/03/14 07:32:54;;;;;;;8.32;5.30;;;9.10;99.90;;;;;;5014435;28;20057;-78
2022/03/14 07:35:21;;;;;;;8.85;5.35;;;9.10;99.90;;;;;;5034346;28;20493;-79
2022/03/14 07:37:47;;;;;;;8.65;5.38;;;9.10;99.90;;;;;;5051098;28;20033;-78
2022/03/14 07:40:15;;;;;;;7.40;5.25;;;9.10;99.90;;;;;;5047392;28;20049;-80
2022/03/14 07:42:50;;;;;;;14.43;5.55;;;9.20;99.90;;;;;;5025803;28;20075;-78
2022/03/14 07:45:20;;;;;;;7.97;5.40;;;9.20;99.90;;;;;;5031071;28;20111;-77
2022/03/14 07:47:46;;;;;;;9.13;5.85;;;9.20;99.90;;;;;;5015292;28;20060;-76
2022/03/14 07:50:15;;;;;;;7.72;5.57;;;9.20;99.90;;;;;;5035715;28;20038;-78
2022/03/14 07:52:42;;;;;;;8.45;6.10;;;9.30;99.90;;;;;;5042826;28;20040;-78
2022/03/14 07:55:09;;;;;;;10.40;5.90;;;9.40;99.90;;;;;;5048324;28;20037;-76
2022/03/14 07:57:35;;;;;;;8.75;6.13;;;9.20;99.90;;;;;;5028006;28;20045;-77
2022/03/14 08:00:03;;;;;;;13.13;6.20;;;9.20;99.90;;;;;;5037641;28;20098;-77
2022/03/14 08:02:29;;;;;;;7.85;5.60;;;9.20;99.90;;;;;;5031101;28;20041;-76
2022/03/14 08:04:55;;;;;;;9.63;5.75;;;9.20;99.90;;;;;;5038377;28;20038;-77
2022/03/14 08:07:20;;;;;;;9.50;6.30;;;10.40;99.90;;;;;;5044314;28;20041;-77
2022/03/14 08:09:48;;;;;;;9.48;5.70;;;9.20;99.90;;;;;;5044558;28;20045;-76
2022/03/14 08:12:15;;;;;;;7.65;5.70;;;10.00;99.90;;;;;;5043345;28;20046;-77
2022/03/14 08:14:40;;;;;;;10.20;6.00;;;9.20;99.90;;;;;;5030363;28;20049;-77
2022/03/14 08:17:06;;;;;;;8.70;6.13;;;9.20;99.90;;;;;;5032717;28;20055;-77
2022/03/14 08:19:32;;;;;;;11.50;6.75;;;9.20;99.90;;;;;;5031758;28;20053;-77
2022/03/14 08:21:58;;;;;;;9.60;5.80;;;9.20;99.90;;;;;;5054914;28;20021;-78
2022/03/14 08:24:24;;;;;;;8.50;6.00;;;9.70;99.90;;;;;;5050211;28;20065;-77
2022/03/14 08:26:50;;;;;;;7.30;5.97;;;9.30;99.90;;;;;;5053836;28;20037;-77
2022/03/14 08:29:17;;;;;;;9.88;6.30;;;9.30;99.90;;;;;;5041223;28;20049;-78
2022/03/14 08:31:43;;;;;;;8.10;6.03;;;9.30;99.90;;;;;;5033094;28;20052;-78
2022/03/14 08:34:10;;;;;;;10.30;6.65;;;9.40;99.90;;;;;;5041826;28;20037;-79
2022/03/14 08:36:37;;;;;;;9.40;6.53;;;9.40;99.90;;;;;;5046394;28;20049;-79
2022/03/14 08:39:04;;;;;;;8.82;6.43;;;9.40;99.90;;;;;;5044674;28;20045;-79
2022/03/14 08:41:30;;;;;;;11.07;6.38;;;9.40;99.90;;;;;;5026096;28;20080;-78
2022/03/14 08:43:56;;;;;;;12.18;5.93;;;9.50;99.90;;;;;;5036599;28;20037;-78
2022/03/14 08:46:22;;;;;;;8.45;6.72;;;9.50;99.90;;;;;;5053808;28;20098;-79
2022/03/14 08:48:48;;;;;;;9.15;6.55;;;9.50;99.90;;;;;;5046687;28;20049;-78
2022/03/14 08:51:14;;;;;;;13.30;6.30;;;9.50;99.90;;;;;;5013903;28;20125;-77
2022/03/14 08:53:41;;;;;;;8.55;6.03;;;9.50;99.90;;;;;;5035633;28;20048;-79
2022/03/14 08:56:07;;;;;;;9.85;6.57;;;9.50;99.90;;;;;;5021963;28;20045;-78
2022/03/14 08:58:33;;;;;;;9.77;6.70;;;9.60;99.90;;;;;;5032838;28;20049;-79
2022/03/14 09:00:59;;;;;;;9.80;6.90;;;9.60;99.90;;;;;;5049912;28;20056;-78
2022/03/14 09:03:26;;;;;;;9.90;7.13;;;9.60;99.90;;;;;;5019757;28;20034;-78
2022/03/14 09:05:56;;;;;;;10.48;6.88;;;9.60;99.90;;;;;;5039873;28;20052;-78
2022/03/14 09:08:24;;;;;;;9.60;6.68;;;9.60;99.90;;;;;;5039226;28;20029;-83
2022/03/14 09:10:55;;;;;;;8.57;6.43;;;9.60;99.90;;;;;;5037086;28;20034;-81
2022/03/14 09:13:21;;;;;;;9.45;7.25;;;9.60;99.90;;;;;;5034946;28;20041;-84
2022/03/14 09:15:48;;;;;;;11.20;7.15;;;9.70;99.90;;;;;;5058451;28;20113;-81
2022/03/14 09:18:14;;;;;;;8.90;7.00;;;9.70;99.90;;;;;;5024809;28;20089;-81
2022/03/14 09:20:41;;;;;;;8.85;7.13;;;9.70;99.90;;;;;;5022857;28;20034;-80
2022/03/14 09:23:10;;;;;;;10.25;7.13;;;9.80;99.90;;;;;;5026578;28;20041;-81
2022/03/14 09:25:36;;;;;;;10.25;7.28;;;9.90;99.90;;;;;;5011921;28;20123;-81
2022/03/14 09:28:02;;;;;;;11.45;7.28;;;9.90;99.90;;;;;;5031044;28;20037;-82
2022/03/14 09:30:28;;;;;;;10.68;7.35;;;10.00;99.90;;;;;;5010649;28;20389;-81
2022/03/14 09:32:54;;;;;;;12.30;7.80;;;10.00;99.90;;;;;;5028998;28;20048;-81
2022/03/14 09:35:22;;;;;;;9.35;7.28;;;10.00;99.90;;;;;;5032638;28;20062;-81
2022/03/14 09:37:49;;;;;;;15.80;7.35;;;10.10;99.90;;;;;;5021623;28;20101;-81
2022/03/14 09:40:20;;;;;;;9.65;7.40;;;10.10;99.90;;;;;;5044401;28;20052;-83
2022/03/14 09:42:49;;;;;;;11.98;7.93;;;10.90;99.90;;;;;;5025911;28;20037;-81
2022/03/14 09:45:15;;;;;;;11.50;8.05;;;10.20;99.90;;;;;;5031398;28;20457;-82
2022/03/14 09:47:49;;;;;;;16.80;8.05;;;10.20;99.90;;;;;;5028501;28;20052;-82
2022/03/14 09:50:22;;;;;;;14.10;8.50;;;10.20;99.90;;;;;;5036426;28;20033;-83
2022/03/14 09:52:49;;;;;;;11.02;7.97;;;10.20;99.90;;;;;;5004419;28;20404;-80
2022/03/14 09:55:16;;;;;;;11.77;8.48;;;10.20;99.90;;;;;;5041564;28;20044;-83
2022/03/14 09:57:42;;;;;;;11.40;8.27;;;10.10;99.90;;;;;;5037095;28;20046;-80
2022/03/14 10:00:18;;;;;;;11.93;8.65;;;10.10;99.90;;;;;;5028205;28;20152;-80
2022/03/14 10:02:45;;;;;;;12.00;8.40;;;10.10;99.90;;;;;;5020436;28;20049;-79
2022/03/14 10:05:13;;;;;;;11.40;8.90;;;10.00;99.90;;;;;;5034818;28;20483;-80
2022/03/14 10:07:40;;;;;;;11.43;8.35;;;10.00;99.90;;;;;;5034943;28;20381;-80
2022/03/14 10:10:07;;;;;;;14.30;9.67;;;10.00;99.90;;;;;;5002027;28;20053;-78
2022/03/14 10:12:33;;;;;;;14.18;10.00;;;10.00;99.90;;;;;;5030996;28;20456;-80
2022/03/14 10:15:05;;;;;;;15.02;9.88;;;9.90;99.90;;;;;;5046358;28;20067;-80
2022/03/14 10:17:32;;;;;;;21.05;13.68;;;9.90;99.90;;;;;;5039130;28;20104;-81
2022/03/14 10:20:00;;;;;;;19.83;13.85;;;9.90;99.90;;;;;;5039937;28;20191;-82
2022/03/14 10:22:35;;;;;;;24.98;15.25;;;9.80;99.90;;;;;;5031966;28;20034;-80
2022/03/14 10:25:13;;;;;;;21.73;13.45;;;9.70;99.90;;;;;;5030690;28;20124;-80
2022/03/14 10:27:41;;;;;;;23.35;15.05;;;9.60;99.90;;;;;;5012853;28;20038;-80
2022/03/14 10:30:29;;;;;;;26.10;15.07;;;9.50;99.90;;;;;;5024649;28;20080;-81
2022/03/14 10:33:12;;;;;;;25.00;15.52;;;9.60;99.90;;;;;;5025261;28;20051;-79
2022/03/14 10:35:41;;;;;;;23.23;14.00;;;9.60;99.90;;;;;;5011362;28;20046;-80
2022/03/14 10:38:09;;;;;;;33.42;15.30;;;9.50;99.90;;;;;;5039623;28;20124;-80
2022/03/14 10:40:38;;;;;;;30.48;15.30;;;9.50;99.90;;;;;;5034424;28;20053;-79
2022/03/14 10:43:08;;;;;;;33.80;15.35;;;9.50;99.90;;;;;;5015697;28;20073;-82
2022/03/14 10:45:34;;;;;;;49.00;16.85;;;9.50;99.90;;;;;;5019446;28;20046;-81
2022/03/14 10:48:03;;;;;;;25.88;14.68;;;9.50;99.90;;;;;;5033065;28;20057;-80
2022/03/14 10:50:41;;;;;;;32.25;14.00;;;9.50;99.90;;;;;;5012543;28;20049;-81
2022/03/14 10:53:17;;;;;;;33.15;14.68;;;9.60;99.90;;;;;;5043023;28;20029;-80
2022/03/14 10:55:46;;;;;;;34.55;13.13;;;9.60;99.90;;;;;;5049634;28;20034;-80
2022/03/14 10:58:17;;;;;;;44.30;13.43;;;9.60;99.90;;;;;;5033285;28;20045;-81
2022/03/14 11:00:54;;;;;;;32.65;14.15;;;9.70;99.90;;;;;;5028003;28;20042;-79
2022/03/14 11:03:22;;;;;;;23.15;12.25;;;9.70;99.90;;;;;;5037511;28;20042;-79
2022/03/14 11:05:49;;;;;;;25.75;11.50;;;9.80;99.90;;;;;;5033537;28;20065;-80
2022/03/14 11:08:38;;;;;;;22.48;11.45;;;9.80;99.90;;;;;;5034348;28;20042;-78
2022/03/14 11:11:07;;;;;;;22.73;9.93;;;9.80;99.90;;;;;;5043969;28;20069;-79
2022/03/14 11:13:44;;;;;;;23.35;10.85;;;9.80;99.90;;;;;;5038080;28;20034;-79
2022/03/14 11:16:15;;;;;;;19.08;9.85;;;9.80;99.90;;;;;;5036836;28;20057;-80
2022/03/14 11:18:41;;;;;;;27.40;11.43;;;9.70;99.90;;;;;;5031357;28;20085;-79
2022/03/14 11:21:08;;;;;;;20.85;10.02;;;9.70;99.90;;;;;;5040126;28;20373;-78
2022/03/14 11:23:35;;;;;;;25.83;10.07;;;9.70;99.90;;;;;;5041518;28;20103;-79
2022/03/14 11:26:02;;;;;;;24.40;10.80;;;9.70;99.90;;;;;;5016451;28;20107;-80
2022/03/14 11:28:34;;;;;;;22.65;10.23;;;9.70;99.90;;;;;;5034128;28;20095;-80
2022/03/14 11:31:01;;;;;;;18.58;9.05;;;9.60;99.90;;;;;;5025288;28;20060;-79
2022/03/14 11:33:29;;;;;;;18.65;9.55;;;9.70;99.90;;;;;;5043341;28;20053;-77
2022/03/14 11:35:55;;;;;;;21.17;9.05;;;9.70;99.90;;;;;;5035753;28;20045;-78
2022/03/14 11:38:21;;;;;;;25.30;10.43;;;9.70;99.90;;;;;;5041691;28;20124;-79
2022/03/14 11:40:49;;;;;;;24.05;9.30;;;9.70;99.90;;;;;;5041021;28;20041;-77
2022/03/14 11:43:16;;;;;;;;;;;9.70;99.90;;;;;;5046323;28;20045;-79
2022/03/14 11:45:42;;;;;;;22.00;9.48;;;9.70;99.90;;;;;;5024832;28;19905;-79
2022/03/14 11:48:09;;;;;;;21.85;9.77;;;9.70;99.90;;;;;;5020641;28;20065;-79
2022/03/14 11:50:48;;;;;;;24.17;10.25;;;9.70;99.90;;;;;;5043612;28;20046;-79
2022/03/14 11:53:23;;;;;;;24.70;9.27;;;9.70;99.90;;;;;;5035414;28;20133;-79
2022/03/14 11:55:52;;;;;;;21.52;9.00;;;9.80;99.90;;;;;;5024450;28;20046;-79
2022/03/14 11:58:36;;;;;;;22.13;10.02;;;9.80;99.90;;;;;;5036676;28;20113;-80
2022/03/14 12:01:22;;;;;;;27.85;10.43;;;9.80;99.90;;;;;;5031966;28;20044;-78
2022/03/14 12:03:53;;;;;;;27.73;10.95;;;9.80;99.90;;;;;;5039535;28;20037;-78
2022/03/14 12:06:47;;;;;;;24.10;9.73;;;9.80;99.90;;;;;;5047208;28;20041;-79
2022/03/14 12:09:37;;;;;;;27.88;9.30;;;9.90;99.90;;;;;;5047508;28;20041;-80
2022/03/14 12:12:05;;;;;;;22.10;8.30;;;9.90;99.90;;;;;;5040487;28;20041;-81
2022/03/14 12:14:47;;;;;;;15.70;7.18;;;9.90;99.90;;;;;;5032838;28;20061;-78
2022/03/14 12:17:13;;;;;;;16.60;7.80;;;10.00;99.90;;;;;;5030575;28;20054;-79
2022/03/14 12:19:46;;;;;;;19.13;7.65;;;10.10;99.90;;;;;;5051458;28;20049;-79
2022/03/14 12:22:15;;;;;;;24.60;8.20;;;9.90;99.90;;;;;;5028232;28;20025;-79
2022/03/14 12:24:49;;;;;;;22.55;9.13;;;10.30;99.90;;;;;;5051482;28;20052;-79
2022/03/14 12:27:19;;;;;;;20.50;8.60;;;9.90;99.90;;;;;;5050016;28;20049;-78
2022/03/14 12:29:50;;;;;;;19.13;9.45;;;10.00;99.90;;;;;;5043699;28;20109;-80
2022/03/14 12:32:34;;;;;;;20.75;10.27;;;10.00;99.90;;;;;;5053048;28;20042;-79
2022/03/14 12:35:10;;;;;;;20.90;10.63;;;10.00;99.90;;;;;;5041109;28;20068;-80
2022/03/14 12:38:09;;;;;;;20.25;10.82;;;9.90;99.90;;;;;;5031018;28;20049;-79
2022/03/14 12:40:35;;;;;;;25.58;11.35;;;10.00;99.90;;;;;;5046235;28;20076;-79
2022/03/14 12:43:07;;;;;;;22.67;11.07;;;10.10;99.90;;;;;;5050770;28;20103;-78
2022/03/14 12:45:36;;;;;;;23.02;11.55;;;10.10;99.90;;;;;;5048525;28;20069;-79
2022/03/14 12:48:12;;;;;;;25.63;11.68;;;10.20;99.90;;;;;;5049108;28;20064;-79
2022/03/14 12:50:48;;;;;;;25.67;12.05;;;10.30;99.90;;;;;;5022051;28;20099;-78